createdAt,value
2019-05-12T00:02:30.367Z,96400.34
2019-05-12T00:05:01.237Z,96400.72
2019-05-12T00:07:31.690Z,96403.83
2019-05-12T00:10:02.237Z,96403.25
2019-05-12T00:12:33.059Z,96417.46
2019-05-12T00:15:03.544Z,96415.59
2019-05-12T00:17:34.222Z,96415.87
2019-05-12T00:20:08.340Z,96422.09
2019-05-12T00:22:52.484Z,96418.22
2019-05-12T00:25:23.329Z,96423.31
2019-05-12T00:27:54.096Z,96423.86
2019-05-12T00:30:38.525Z,96428.22
2019-05-12T00:33:09.332Z,96431.62
2019-05-12T00:35:40.798Z,96442.13
2019-05-12T00:38:11.541Z,96443.14
2019-05-12T00:40:42.345Z,96439.71
2019-05-12T00:43:13.222Z,96435.11
2019-05-12T00:45:43.840Z,96438.14
2019-05-12T00:48:14.557Z,96440.14
2019-05-12T00:50:44.335Z,96442.77
2019-05-12T00:53:14.779Z,96439.28
2019-05-12T00:55:47.530Z,96448.19
2019-05-12T00:58:19.400Z,96451.59
2019-05-12T01:00:49.614Z,96449.50
2019-05-12T01:03:20.457Z,96456.39
2019-05-12T01:05:51.047Z,96463.06
2019-05-12T01:08:21.955Z,96466.47
2019-05-12T01:10:52.426Z,96476.58
2019-05-12T01:13:23.036Z,96478.23
2019-05-12T01:15:53.501Z,96480.66
2019-05-12T01:18:24.211Z,96480.00
2019-05-12T01:20:54.669Z,96483.77
2019-05-12T01:23:25.239Z,96486.91
2019-05-12T01:25:58.296Z,96490.78
2019-05-12T01:28:28.481Z,96489.34
2019-05-12T01:31:01.051Z,96487.35
2019-05-12T01:33:31.973Z,96501.98
2019-05-12T01:36:03.037Z,96503.88
2019-05-12T01:38:34.046Z,96505.91
2019-05-12T01:41:04.589Z,96506.48
2019-05-12T01:43:35.465Z,96509.69
2019-05-12T01:46:08.077Z,96510.16
2019-05-12T01:48:38.937Z,96518.27
2019-05-12T01:51:09.660Z,96517.64
2019-05-12T01:53:40.427Z,96517.35
2019-05-12T01:56:11.230Z,96526.53
2019-05-12T01:58:41.761Z,96524.70
2019-05-12T02:01:12.668Z,96523.94
2019-05-12T02:03:45.209Z,96529.91
2019-05-12T02:06:15.670Z,96536.47
2019-05-12T02:08:49.085Z,96539.49
2019-05-12T02:11:35.235Z,96546.67
2019-05-12T02:14:40.605Z,96551.93
2019-05-12T02:17:10.387Z,96555.09
2019-05-12T02:19:40.975Z,96561.25
2019-05-12T02:22:11.452Z,96565.73
2019-05-12T02:24:42.332Z,96574.94
2019-05-12T02:27:13.216Z,96575.05
2019-05-12T02:29:43.753Z,96571.30
2019-05-12T02:33:35.623Z,96581.29
2019-05-12T02:36:06.039Z,96582.05
2019-05-12T02:38:36.843Z,96588.08
2019-05-12T02:41:07.668Z,96594.21
2019-05-12T02:43:38.563Z,96588.11
2019-05-12T02:46:08.623Z,96590.96
2019-05-12T02:48:39.088Z,96601.06
2019-05-12T02:51:10.207Z,96608.17
2019-05-12T02:53:40.661Z,96606.93
2019-05-12T02:56:11.679Z,96607.02
2019-05-12T02:58:45.252Z,96613.34
2019-05-12T03:01:15.356Z,96599.31
2019-05-12T03:03:46.036Z,96609.38
2019-05-12T03:06:17.036Z,96623.05
2019-05-12T03:08:47.825Z,96627.22
2019-05-12T09:35:44.991Z,97095.56
